Pagrindinis puslapis
METAR-TAF:

METAR-TAF

Oro uostai :

Santa Klara, Kuba

platuma: 22-29-32N, ilguma: 079-56-37W, Aukštis: 103 m

Dabartinis oras

Ataskaita buvo paskelbta 31 minutes, ne 08:50 UTC
Vėjas 3 kt iš Pietų/Pietvakarių
Temperatūra 23°C
Drėgmė 100%
Slėgis 1013 hPa
Matomumas: 8000 m

METAR: MUSC 270850Z 21003KT 8000 NSC 23/23 Q1013

Laikas: 05:21 (09:21 UTC)

Prognozė

Ataskaita buvo paskelbta 4 valandos ir 21 minutes, ne 05:00 UTC
Prognozė galioja nuo 27 metu 06 UTC su 28 metu 06 UTC
Vėjas 3 kt nuo kintamojo kryptimis
Matomumas: 9000 m
Išsisklaidę debesys ne aukštis 2000 ft
Laikinai
nuo 27 metu 07 UTC su 27 metu 13 UTC
Matomumas: 3000 m
rūkana
Laikinai
nuo 27 metu 18 UTC su 27 metu 24 UTC
Matomumas: 5000 m
Išsisklaidę debesys ne aukštis 1800 ft, Liūtiniai kamuoliniai debesys.
Su prošvaistėmis ne aukštis 2000 ft
perkūnija, lietus

TAF: MUSC 270500Z 2706/2806 VRB03KT 9000 SCT020 TEMPO 2707/2713 3000 BR NSC TEMPO 2718/2724 5000 TSRA SCT018CB BKN020

Orai ataskaitas ir orų prognozės (METAR, TAF).

turimą stotys yra geltonos ir raudonos taškus žemėlapyje.

Perkelti pele per norėdami pamatyti stoties vardą.

Tada spustelėkite, norėdami matyti oro stebėjimo ir prognozės.

Norėdami pakeisti žemėlapį: spustelėkite ant žalios mygtukų su juodo kryžiaus žemyn,; žalią mygtuką su brūkšneliu, jei norite nutolinti; arba žalių rodyklių gretimoms žemėlapius.


METAR-TAF: